Seaham, United Kingdom
Current Conditions -  °F | °C
As of 6:50 AM on Monday 24 Nov 2014 (Local Time) from EGNT Reporting Station
Few Clouds Few Clouds  
Wind Chill: 33°   Ceiling: Unl
Heat Index: 41°   Visibility: 6mi
Dew Point: 39°   Wind: 16mph
Humidity: 93%   Direction: 260°W
Pressure: 30.15"   Gusts: NA
Location:  54.84°N, 1.34°W
Report Text: EGNT 240650Z 26014KT 9999 FEW015 05/04 Q1021
Loading
Personal Weather Stations






























Interactive Weather Map New forecast layout! Learn more

10-Day Weather Forecast

Advertisements
Track Severe Weather on mobile